Time;durP1;ratioP1;P1;durP2;ratioP2;P2;SDS_P1;SDS_P2;PMS_P1;PMS_P2;Temp;Humidity;BMP_temperature;BMP_pressure;BME280_temperature;BME280_humidity;BME280_pressure;Samples;Min_cycle;Max_cycle;Signal;HPM_P1;HPM_P2
2023/10/07 00:02:16;;;;;;;9.77;3.67;;;;;;;12.90;100.00;102009.47;5033498;28;20440;-87
2023/10/07 00:04:44;;;;;;;10.10;3.43;;;;;;;12.89;100.00;102017.81;5015811;28;20033;-87
2023/10/07 00:07:11;;;;;;;8.07;3.63;;;;;;;12.88;100.00;102019.72;5032622;28;20057;-86
2023/10/07 00:09:41;;;;;;;7.57;3.70;;;;;;;12.88;100.00;102005.25;5016358;28;20041;-86
2023/10/07 00:12:28;;;;;;;11.15;4.13;;;;;;;12.84;100.00;101996.63;5016709;28;20045;-87
2023/10/07 00:14:53;;;;;;;10.75;4.00;;;;;;;12.81;100.00;101983.44;5033176;28;20049;-87
2023/10/07 00:17:18;;;;;;;10.40;4.07;;;;;;;12.84;100.00;101984.91;5032502;28;20045;-87
2023/10/07 00:19:46;;;;;;;7.80;3.57;;;;;;;12.80;100.00;101998.09;5015909;28;20054;-87
2023/10/07 00:22:14;;;;;;;7.57;3.63;;;;;;;12.76;100.00;101999.56;5016319;28;20381;-86
2023/10/07 00:24:43;;;;;;;11.10;4.10;;;;;;;12.77;100.00;101993.91;5033498;28;20107;-86
2023/10/07 00:27:25;;;;;;;10.13;4.10;;;;;;;12.79;100.00;102001.88;5016692;28;20049;-86
2023/10/07 00:29:54;;;;;;;8.07;4.17;;;;;;;12.82;100.00;102005.00;5016708;28;20545;-86
2023/10/07 00:32:32;;;;;;;9.38;4.72;;;;;;;12.85;100.00;101984.72;5016120;28;20140;-86
2023/10/07 00:35:01;;;;;;;11.95;3.95;;;;;;;12.87;100.00;101996.22;5017220;28;20148;-87
2023/10/07 00:37:30;;;;;;;10.18;4.68;;;;;;;12.82;100.00;101999.56;5035125;28;20124;-86
2023/10/07 00:40:00;;;;;;;9.75;4.75;;;;;;;12.79;100.00;101989.06;5037582;28;20041;-86
2023/10/07 00:42:26;;;;;;;14.67;5.03;;;;;;;12.81;100.00;101997.03;5020946;28;20041;-86
2023/10/07 00:44:53;;;;;;;11.45;4.90;;;;;;;12.76;100.00;101986.75;5019400;28;20045;-86
2023/10/07 00:47:19;;;;;;;11.50;4.80;;;;;;;12.75;100.00;101992.41;5020535;28;20470;-86
2023/10/07 00:52:48;;;;;;;10.60;4.55;;;;;;;12.72;100.00;101992.81;5037361;28;20541;-86
2023/10/07 00:55:19;;;;;;;13.40;5.35;;;;;;;12.76;100.00;101999.56;5019702;28;20041;-86
2023/10/07 00:57:53;;;;;;;13.57;5.43;;;;;;;12.76;100.00;101999.56;5004136;28;20092;-86
2023/10/07 01:02:52;;;;;;;15.33;4.77;;;;;;;12.74;100.00;101977.09;5019593;28;20049;-86
2023/10/07 01:05:27;;;;;;;13.52;5.30;;;;;;;12.73;100.00;101984.44;5019944;28;20096;-86
2023/10/07 01:07:58;;;;;;;14.97;6.40;;;;;;;12.70;100.00;101979.41;5035981;28;20048;-86
2023/10/07 01:10:27;;;;;;;11.20;5.10;;;;;;;12.67;100.00;101968.06;5019618;28;20050;-86
2023/10/07 01:12:55;;;;;;;13.65;5.40;;;;;;;12.68;100.00;101964.31;5003309;28;20140;-86
2023/10/07 01:15:26;;;;;;;17.10;5.70;;;;;;;12.66;100.00;101969.13;5019237;28;20045;-86
2023/10/07 01:17:57;;;;;;;12.05;5.80;;;;;;;12.66;100.00;101975.41;5020029;28;20466;-85
2023/10/07 01:20:38;;;;;;;15.17;5.43;;;;;;;12.66;100.00;101983.56;5003538;28;20061;-86
2023/10/07 01:23:04;;;;;;;14.35;5.68;;;;;;;12.66;100.00;101996.34;5019392;28;20131;-86
2023/10/07 01:25:32;;;;;;;14.60;6.03;;;;;;;12.70;100.00;102000.38;5018927;28;20034;-86
2023/10/07 01:28:01;;;;;;;15.43;5.95;;;;;;;12.66;100.00;101989.00;5018984;28;20046;-86
2023/10/07 01:30:29;;;;;;;13.98;6.05;;;;;;;12.66;100.00;101989.00;5019233;28;20044;-86
2023/10/07 01:33:02;;;;;;;14.17;5.80;;;;;;;12.67;100.00;101982.53;5036558;28;20048;-85
2023/10/07 01:35:38;;;;;;;13.60;6.53;;;;;;;12.67;100.00;101998.88;5019803;28;20033;-86
2023/10/07 01:38:07;;;;;;;16.88;6.75;;;;;;;12.66;100.00;101989.00;5034291;28;20037;-86
2023/10/07 01:40:55;;;;;;;12.77;6.35;;;;;;;12.66;100.00;101975.41;5018627;28;20096;-86
2023/10/07 01:43:20;;;;;;;16.23;6.32;;;;;;;12.69;100.00;101979.63;5036027;28;20048;-86
2023/10/07 01:45:48;;;;;;;13.90;6.43;;;;;;;12.64;100.00;101978.31;5036827;28;20082;-86
2023/10/07 01:48:17;;;;;;;16.23;7.10;;;;;;;12.66;100.00;101974.56;5002264;28;20049;-86
2023/10/07 01:50:44;;;;;;;13.48;6.93;;;;;;;12.69;100.00;101983.16;5035932;28;20373;-86
2023/10/07 01:53:11;;;;;;;20.33;7.50;;;;;;;12.73;100.00;101968.09;5018560;28;20105;-86
2023/10/07 01:55:43;;;;;;;18.88;7.90;;;;;;;12.77;100.00;101971.25;5034808;28;20048;-86
2023/10/07 01:58:19;;;;;;;16.37;7.83;;;;;;;12.80;100.00;101970.88;5019144;28;20137;-86
2023/10/07 02:00:57;;;;;;;18.75;7.78;;;;;;;12.85;100.00;101978.44;5019368;28;20046;-86
2023/10/07 02:03:24;;;;;;;20.30;8.63;;;;;;;12.86;100.00;101975.50;5018928;28;20049;-86
2023/10/07 02:05:52;;;;;;;17.48;7.43;;;;;;;12.92;100.00;101976.59;5018569;28;20037;-86
2023/10/07 02:08:23;;;;;;;19.88;8.02;;;;;;;12.95;100.00;101963.38;5034803;28;20043;-86
2023/10/07 02:10:59;;;;;;;15.77;8.00;;;;;;;12.98;100.00;101976.59;5018744;28;20037;-86
2023/10/07 02:13:27;;;;;;;16.33;8.13;;;;;;;13.01;100.00;101978.06;5018206;28;20045;-86
2023/10/07 02:15:54;;;;;;;15.13;8.07;;;;;;;13.02;100.00;101984.34;5018118;28;20045;-86
2023/10/07 02:18:27;;;;;;;17.85;8.32;;;;;;;13.05;100.00;101964.88;5018373;28;20042;-86
2023/10/07 02:21:05;;;;;;;24.40;9.65;;;;;;;13.05;100.00;101960.28;5018179;28;20156;-86
2023/10/07 02:23:45;;;;;;;20.43;9.53;;;;;;;13.05;100.00;101962.16;5018895;28;20108;-86
2023/10/07 02:26:19;;;;;;;19.70;9.85;;;;;;;13.09;100.00;101977.03;5017918;28;20123;-86
2023/10/07 02:28:50;;;;;;;20.33;9.75;;;;;;;13.10;100.00;101968.66;5017917;28;20041;-86
2023/10/07 02:31:18;;;;;;;19.90;9.10;;;;;;;13.15;100.00;101966.19;5018115;28;20038;-87
2023/10/07 02:33:45;;;;;;;21.15;10.77;;;;;;;13.22;100.00;101957.19;5002145;28;20131;-87
2023/10/07 02:36:32;;;;;;;25.47;10.33;;;;;;;13.26;100.00;101961.19;5036375;28;20046;-87
2023/10/07 02:39:18;;;;;;;26.15;11.23;;;;;;;13.32;100.00;101972.06;5003772;28;20094;-87
2023/10/07 02:41:47;;;;;;;20.02;10.68;;;;;;;13.41;100.00;101977.38;5017885;28;20038;-87
2023/10/07 02:44:16;;;;;;;25.02;10.85;;;;;;;13.41;100.00;101989.13;5033794;28;20173;-87
2023/10/07 02:46:42;;;;;;;23.33;11.60;;;;;;;13.44;100.00;101972.34;5001593;28;20393;-87
2023/10/07 02:49:11;;;;;;;23.07;11.57;;;;;;;13.44;100.00;101972.34;5001213;28;20041;-87
2023/10/07 02:51:44;;;;;;;25.10;12.70;;;;;;;13.48;100.00;101968.16;5001508;28;20060;-86
2023/10/07 02:54:20;;;;;;;23.45;11.57;;;;;;;13.51;100.00;101969.66;5017756;28;20041;-86
2023/10/07 02:57:21;;;;;;;27.25;11.95;;;;;;;13.54;100.00;101969.22;5017683;28;20045;-86
2023/10/07 02:59:50;;;;;;;23.73;12.27;;;;;;;13.57;100.00;101966.06;5033157;28;20394;-86
2023/10/07 03:04:44;;;;;;;23.27;13.48;;;;;;;13.60;100.00;101982.03;5034670;28;20048;-87
2023/10/07 03:07:16;;;;;;;27.38;12.93;;;;;;;13.64;100.00;101980.56;5017095;28;20470;-87
2023/10/07 03:09:54;;;;;;;29.27;13.18;;;;;;;13.68;100.00;101975.53;5032995;28;20390;-86
2023/10/07 03:12:28;;;;;;;24.60;12.77;;;;;;;13.70;100.00;101976.16;5017409;28;20092;-86
2023/10/07 03:15:00;;;;;;;22.77;12.20;;;;;;;13.73;100.00;101973.03;5017031;28;20137;-87
2023/10/07 03:17:38;;;;;;;25.48;12.68;;;;;;;13.76;100.00;101978.06;5016709;28;20030;-86
2023/10/07 03:28:17;;;;;;;26.38;12.77;;;;;;;13.82;100.00;101970.94;5035175;28;20564;-86
2023/10/07 03:30:47;;;;;;;29.67;13.05;;;;;;;13.88;100.00;101969.22;5016677;28;20044;-86
2023/10/07 03:33:15;;;;;;;26.48;13.02;;;;;;;13.86;100.00;101967.56;5000739;28;20052;-86
2023/10/07 03:38:25;;;;;;;25.73;12.50;;;;;;;13.92;100.00;101976.81;5034386;28;20045;-86
2023/10/07 03:40:55;;;;;;;25.33;13.50;;;;;;;13.94;100.00;101961.03;5016279;28;20044;-86
2023/10/07 03:43:27;;;;;;;30.65;14.23;;;;;;;13.94;100.00;101969.25;5034846;28;20112;-87
2023/10/07 03:45:57;;;;;;;32.42;15.02;;;;;;;13.97;100.00;101963.34;5016776;28;20029;-87
2023/10/07 03:48:23;;;;;;;30.60;14.52;;;;;;;14.00;100.00;101964.84;5016314;28;20046;-87
2023/10/07 03:50:59;;;;;;;27.50;14.67;;;;;;;14.02;100.00;101951.81;5016372;28;20037;-87
2023/10/07 03:53:31;;;;;;;32.05;15.13;;;;;;;14.04;100.00;101944.25;5016699;28;20053;-87
2023/10/07 03:56:00;;;;;;;28.58;16.20;;;;;;;14.03;100.00;101940.66;5001025;28;20473;-86
2023/10/07 03:58:27;;;;;;;32.97;15.35;;;;;;;14.04;100.00;101950.53;5016304;28;20037;-86
2023/10/07 04:00:55;;;;;;;27.90;15.05;;;;;;;14.03;100.00;101935.22;5000171;28;20519;-87
2023/10/07 04:03:23;;;;;;;28.20;13.93;;;;;;;14.04;100.00;101945.09;4999485;28;20042;-87
2023/10/07 04:05:49;;;;;;;26.92;15.32;;;;;;;14.03;100.00;101932.50;5016155;28;20037;-87
2023/10/07 04:08:18;;;;;;;33.50;15.40;;;;;;;14.05;100.00;101935.00;5016017;28;20068;-86
2023/10/07 04:10:45;;;;;;;29.10;14.95;;;;;;;14.06;100.00;101927.69;4999778;28;20143;-87
2023/10/07 04:13:23;;;;;;;29.27;15.95;;;;;;;14.04;100.00;101925.16;4999565;28;20472;-86
2023/10/07 04:15:52;;;;;;;33.37;15.63;;;;;;;14.03;100.00;101928.94;5016051;28;20041;-86
2023/10/07 04:18:22;;;;;;;32.30;15.63;;;;;;;14.03;100.00;101926.19;5033516;28;20033;-87
2023/10/07 04:20:57;;;;;;;35.35;15.88;;;;;;;14.05;100.00;101932.28;5015761;28;20107;-86
2023/10/07 04:23:25;;;;;;;26.83;15.40;;;;;;;14.06;100.00;101936.69;5001329;28;20037;-86
2023/10/07 04:26:05;;;;;;;31.10;14.80;;;;;;;14.08;100.00;101942.75;4999868;28;20402;-87
2023/10/07 04:28:31;;;;;;;30.83;13.97;;;;;;;14.08;100.00;101923.66;5016325;28;20068;-87
2023/10/07 04:30:57;;;;;;;29.08;15.43;;;;;;;14.06;100.00;101930.41;5015938;28;20569;-86
2023/10/07 04:33:32;;;;;;;30.38;14.73;;;;;;;14.09;100.00;101938.16;5015663;28;20033;-87
2023/10/07 04:36:04;;;;;;;25.98;12.88;;;;;;;14.11;100.00;101942.34;5001137;28;20438;-87
2023/10/07 04:43:49;;;;;;;26.00;14.32;;;;;;;14.16;100.00;101950.75;5034090;28;20046;-86
2023/10/07 04:46:22;;;;;;;26.27;13.75;;;;;;;14.14;100.00;101941.09;5015640;28;20065;-87
2023/10/07 04:48:54;;;;;;;25.83;13.18;;;;;;;14.16;100.00;101956.19;5015523;28;20485;-87
2023/10/07 04:54:01;;;;;;;25.10;12.10;;;;;;;14.14;100.00;101950.13;5033518;28;20067;-87
2023/10/07 04:56:32;;;;;;;22.65;12.43;;;;;;;14.16;100.00;101958.94;5015675;28;20033;-87
2023/10/07 04:59:00;;;;;;;28.08;13.00;;;;;;;14.14;100.00;101952.84;5016397;28;20057;-87
2023/10/07 05:01:31;;;;;;;22.27;11.82;;;;;;;14.15;100.00;101949.06;5015505;28;20036;-87
2023/10/07 05:04:09;;;;;;;20.95;11.50;;;;;;;14.15;100.00;101954.50;5033647;28;20038;-87
2023/10/07 05:06:40;;;;;;;25.27;11.27;;;;;;;14.14;100.00;101944.66;5015539;28;20061;-86
2023/10/07 05:09:18;;;;;;;21.58;10.38;;;;;;;14.12;100.00;101948.66;5015625;28;20441;-87
2023/10/07 05:11:45;;;;;;;23.23;10.75;;;;;;;14.12;100.00;101946.75;5015820;28;20432;-86
2023/10/07 05:14:11;;;;;;;27.75;10.73;;;;;;;14.11;100.00;101946.97;5016159;28;20058;-86
2023/10/07 05:16:37;;;;;;;21.45;10.02;;;;;;;14.11;100.00;101949.69;4998853;28;20486;-88
2023/10/07 05:19:08;;;;;;;20.30;10.33;;;;;;;14.12;100.00;101963.13;5015460;28;20034;-88
2023/10/07 05:21:41;;;;;;;22.23;10.10;;;;;;;14.16;100.00;101949.91;5015489;28;20093;-86
2023/10/07 05:24:17;;;;;;;24.25;9.88;;;;;;;14.14;100.00;101961.03;5004037;28;20045;-86
2023/10/07 05:26:45;;;;;;;18.42;9.68;;;;;;;14.14;100.00;101955.59;5019033;28;20049;-86
2023/10/07 05:29:12;;;;;;;21.33;9.00;;;;;;;14.14;100.00;101961.03;5018665;28;20076;-87
2023/10/07 05:31:43;;;;;;;18.73;10.17;;;;;;;14.15;100.00;101946.31;5019170;28;20100;-87
2023/10/07 05:34:08;;;;;;;16.70;9.00;;;;;;;14.18;100.00;101936.88;5019261;28;20036;-86
2023/10/07 05:36:33;;;;;;;19.97;9.50;;;;;;;14.18;100.00;101943.16;5035179;28;20041;-86
2023/10/07 05:39:00;;;;;;;22.83;9.63;;;;;;;14.18;100.00;101929.53;5036667;28;20272;-87
2023/10/07 05:41:28;;;;;;;18.38;8.77;;;;;;;14.20;100.00;101945.69;5019060;28;20085;-84
2023/10/07 05:43:54;;;;;;;26.37;9.70;;;;;;;14.21;100.00;101955.56;5018488;28;20084;-86
2023/10/07 05:46:20;;;;;;;21.95;9.40;;;;;;;14.24;100.00;101960.59;5019051;28;20176;-84
2023/10/07 05:48:47;;;;;;;19.85;9.43;;;;;;;14.26;100.00;101944.00;5018595;28;20137;-86
2023/10/07 05:51:16;;;;;;;18.05;8.63;;;;;;;14.25;100.00;101956.81;5036097;28;20061;-85
2023/10/07 05:53:43;;;;;;;18.30;9.13;;;;;;;14.25;100.00;101958.72;5018749;28;20052;-85
2023/10/07 05:56:09;;;;;;;21.83;10.00;;;;;;;14.25;100.00;101956.00;5018495;28;20111;-85
2023/10/07 05:58:36;;;;;;;23.77;8.85;;;;;;;14.25;100.00;101950.53;5018016;28;20040;-85
2023/10/07 06:01:14;;;;;;;18.92;8.70;;;;;;;14.25;100.00;101953.25;5018636;28;20060;-85
2023/10/07 06:03:40;;;;;;;19.67;9.50;;;;;;;14.26;100.00;101960.38;5018344;28;20042;-85
2023/10/07 06:06:06;;;;;;;25.20;9.13;;;;;;;14.28;100.00;101967.31;5001974;28;20048;-86
2023/10/07 06:08:32;;;;;;;18.13;8.55;;;;;;;14.29;100.00;101968.13;5018149;28;20036;-85
2023/10/07 06:10:59;;;;;;;21.83;9.57;;;;;;;14.32;100.00;101957.66;5019344;28;20033;-85
2023/10/07 06:13:27;;;;;;;20.38;9.07;;;;;;;14.31;100.00;101966.06;5018097;28;20390;-86
2023/10/07 06:15:53;;;;;;;17.48;9.15;;;;;;;14.26;100.00;101972.16;5035811;28;20045;-86
2023/10/07 06:18:18;;;;;;;16.80;9.23;;;;;;;14.25;100.00;101958.72;5018241;28;20380;-86
2023/10/07 06:20:48;;;;;;;27.27;9.05;;;;;;;14.25;100.00;101972.38;5035940;28;20130;-86
2023/10/07 06:23:15;;;;;;;27.03;9.10;;;;;;;14.25;100.00;101956.81;5017927;28;20049;-86
2023/10/07 06:25:53;;;;;;;19.42;9.10;;;;;;;14.22;100.00;101954.50;5017868;28;20045;-85
2023/10/07 06:34:03;;;;;;;19.73;8.35;;;;;;;14.24;100.00;101987.06;5012683;28;20040;-85
2023/10/07 06:36:30;;;;;;;19.37;8.20;;;;;;;14.27;100.00;101984.72;5034809;28;20124;-86
2023/10/07 06:39:01;;;;;;;17.90;8.30;;;;;;;14.29;100.00;101987.25;5017665;28;20056;-86
2023/10/07 06:41:30;;;;;;;17.73;8.25;;;;;;;14.29;100.00;101995.44;5018447;28;20056;-86
2023/10/07 06:43:59;;;;;;;21.52;8.75;;;;;;;14.33;100.00;101988.50;5033837;28;20038;-87
2023/10/07 06:46:29;;;;;;;15.98;8.25;;;;;;;14.35;100.00;101979.06;5017360;28;20041;-86
2023/10/07 06:48:59;;;;;;;18.57;7.70;;;;;;;14.42;100.00;101980.94;5017462;28;20048;-86
2023/10/07 06:51:29;;;;;;;17.65;8.05;;;;;;;14.45;100.00;101981.31;5017367;28;20041;-87
2023/10/07 06:53:55;;;;;;;16.50;8.00;;;;;;;14.52;100.00;102003.16;5017095;28;20049;-87
2023/10/07 06:56:21;;;;;;;18.52;7.40;;;;;;;14.56;100.00;101997.06;5017280;28;20132;-87
2023/10/07 06:58:53;;;;;;;18.30;7.30;;;;;;;14.64;100.00;101996.03;5017292;28;20532;-86
2023/10/07 07:04:11;;;;;;;20.05;7.32;;;;;;;14.72;100.00;101998.53;5035028;28;20043;-86
2023/10/07 07:06:43;;;;;;;18.08;7.10;;;;;;;14.71;100.00;102001.47;5017748;28;20096;-86
2023/10/07 07:11:59;;;;;;;18.00;7.25;;;;;;;14.68;100.00;101986.34;5034858;28;20104;-86
2023/10/07 07:14:28;;;;;;;18.23;7.65;;;;;;;14.73;100.00;101999.34;5016375;28;20103;-87
2023/10/07 07:16:56;;;;;;;16.00;6.93;;;;;;;14.75;100.00;102002.72;5016826;28;20033;-87
2023/10/07 07:19:24;;;;;;;13.70;7.00;;;;;;;14.84;100.00;102012.34;5017158;28;20431;-87
2023/10/07 07:21:57;;;;;;;16.77;7.83;;;;;;;14.90;100.00;102022.41;5033685;28;20256;-87
2023/10/07 07:24:25;;;;;;;15.52;7.00;;;;;;;14.93;100.00;102012.97;5017353;28;20045;-87
2023/10/07 07:26:53;;;;;;;15.90;7.40;;;;;;;14.98;100.00;102013.13;5017184;28;20038;-87
2023/10/07 07:29:23;;;;;;;18.58;7.57;;;;;;;15.03;100.00;102023.44;5000838;28;20040;-87
2023/10/07 07:31:49;;;;;;;18.38;6.90;;;;;;;15.04;100.00;102017.75;5034396;28;20041;-86
2023/10/07 07:34:26;;;;;;;16.33;6.73;;;;;;;15.09;100.00;102025.31;5015988;28;20036;-87
2023/10/07 07:37:04;;;;;;;14.93;7.20;;;;;;;15.05;100.00;102024.06;5032807;28;20045;-87
2023/10/07 07:39:32;;;;;;;22.20;7.28;;;;;;;15.01;100.00;102018.16;5016719;28;20042;-87
2023/10/07 07:42:15;;;;;;;18.53;7.13;;;;;;;14.98;100.00;102020.50;5016941;28;20608;-87
2023/10/07 07:44:55;;;;;;;18.23;6.80;;;;;;;14.95;100.00;102029.13;5033695;28;20045;-87
2023/10/07 07:47:30;;;;;;;18.50;6.90;;;;;;;14.97;100.00;102025.13;5016769;28;20128;-86
2023/10/07 07:49:57;;;;;;;17.20;6.72;;;;;;;15.02;100.00;102019.84;5016139;28;20099;-88
2023/10/07 07:52:23;;;;;;;13.27;7.50;;;;;;;15.08;100.00;102016.25;5016458;28;20418;-87
2023/10/07 07:54:55;;;;;;;15.33;7.33;;;;;;;15.10;100.00;102024.22;5016197;28;20037;-87
2023/10/07 07:57:24;;;;;;;17.05;7.75;;;;;;;15.11;100.00;102017.72;5016702;28;20083;-87
2023/10/07 07:59:53;;;;;;;16.30;7.15;;;;;;;15.12;100.00;102013.06;5032799;28;20037;-86
2023/10/07 08:02:24;;;;;;;20.13;8.10;;;;;;;15.11;100.00;102027.81;5015629;28;20545;-87
2023/10/07 08:04:50;;;;;;;14.63;7.10;;;;;;;15.18;100.00;102039.56;5016015;28;20081;-86
2023/10/07 08:09:50;;;;;;;18.08;7.15;;;;;;;15.29;100.00;102041.59;5033646;28;20033;-87
2023/10/07 08:12:31;;;;;;;21.40;7.40;;;;;;;15.37;100.00;102043.25;5015940;28;20041;-86
2023/10/07 08:17:41;;;;;;;15.35;7.10;;;;;;;15.51;100.00;102046.75;5018006;28;20042;-86
2023/10/07 08:20:12;;;;;;;14.18;7.03;;;;;;;15.57;100.00;102045.88;5015459;28;20505;-87
2023/10/07 08:22:45;;;;;;;18.45;6.90;;;;;;;15.65;100.00;102044.75;5033541;28;20136;-86
2023/10/07 08:25:15;;;;;;;13.83;6.40;;;;;;;15.72;100.00;102045.56;5000109;28;20075;-86
2023/10/07 08:27:44;;;;;;;11.60;5.70;;;;;;;15.79;100.00;102049.94;5015824;28;20132;-86
2023/10/07 08:30:14;;;;;;;15.40;6.50;;;;;;;15.86;100.00;102046.34;5016095;28;20128;-86
2023/10/07 08:32:42;;;;;;;18.30;6.93;;;;;;;15.90;100.00;102042.94;5016293;28;20069;-86
2023/10/07 08:35:16;;;;;;;12.63;6.13;;;;;;;15.93;100.00;102044.41;5000034;28;20041;-86
2023/10/07 08:37:45;;;;;;;17.80;6.43;;;;;;;16.00;100.00;102034.22;5015984;28;20034;-86
2023/10/07 08:40:25;;;;;;;14.88;6.18;;;;;;;16.09;100.00;102024.69;5015452;28;20076;-86
2023/10/07 08:42:55;;;;;;;21.73;7.28;;;;;;;16.15;100.00;102028.44;5016145;28;20088;-86
2023/10/07 08:45:23;;;;;;;19.80;6.80;;;;;;;16.21;100.00;102043.09;5033735;28;20044;-86
2023/10/07 08:47:56;;;;;;;14.18;5.40;;;;;;;16.28;100.00;102032.94;5016277;28;20048;-86
2023/10/07 08:50:23;;;;;;;17.40;6.07;;;;;;;16.35;100.00;102039.19;5032414;28;20405;-86
2023/10/07 08:53:05;;;;;;;13.27;5.93;;;;;;;16.37;100.00;102031.59;5032021;28;20371;-86
2023/10/07 08:55:32;;;;;;;13.45;5.90;;;;;;;16.45;100.00;102027.72;5015488;28;20124;-86
2023/10/07 08:58:02;;;;;;;12.43;5.05;;;;;;;16.48;100.00;102024.53;5017058;28;20064;-86
2023/10/07 09:00:32;;;;;;;11.40;5.68;;;;;;;16.56;100.00;102021.47;5019662;28;20033;-86
2023/10/07 09:03:14;;;;;;;15.30;5.63;;;;;;;16.59;100.00;102017.47;5019386;28;20037;-86
2023/10/07 09:05:41;;;;;;;10.43;5.40;;;;;;;16.61;100.00;102021.66;5036072;28;20034;-86
2023/10/07 09:08:12;;;;;;;13.75;4.88;;;;;;;16.65;100.00;102020.16;5019040;28;20037;-87
2023/10/07 09:10:45;;;;;;;12.05;4.90;;;;;;;16.75;100.00;102024.25;5019689;28;20037;-87
2023/10/07 09:13:19;;;;;;;12.30;4.70;;;;;;;16.82;100.00;102025.00;5019508;28;20505;-87
2023/10/07 09:15:46;;;;;;;14.20;5.10;;;;;;;16.89;100.00;102025.81;5019827;28;20477;-86
2023/10/07 09:18:17;;;;;;;8.43;4.45;;;;;;;16.93;100.00;102007.00;5036861;28;20044;-86
2023/10/07 09:20:50;;;;;;;11.85;4.80;;;;;;;16.96;100.00;102007.38;5018904;28;20081;-87
2023/10/07 09:23:19;;;;;;;13.75;4.50;;;;;;;17.01;100.00;102010.25;5019215;28;20033;-87
2023/10/07 09:25:55;;;;;;;11.70;4.35;;;;;;;17.09;100.00;102003.59;5018923;28;20108;-86
2023/10/07 09:28:31;;;;;;;9.57;4.37;;;;;;;17.19;100.00;101997.59;5019677;28;20038;-87
2023/10/07 09:31:05;;;;;;;13.50;4.53;;;;;;;17.23;100.00;102003.44;5019241;28;20501;-87
2023/10/07 09:33:35;;;;;;;10.75;4.18;;;;;;;17.35;100.00;102007.06;5019699;28;20033;-87
2023/10/07 09:38:48;;;;;;;9.85;4.07;;;;;;;17.61;100.00;102016.84;5037261;28;20056;-87
2023/10/07 09:43:51;;;;;;;10.80;4.40;;;;;;;17.71;100.00;102008.84;5037338;28;20041;-88
2023/10/07 09:46:24;;;;;;;9.63;4.03;;;;;;;17.81;100.00;102011.00;5002469;28;20049;-87
2023/10/07 09:49:00;;;;;;;11.93;4.00;;;;;;;17.83;100.00;102002.53;5018706;28;20117;-87
2023/10/07 09:51:34;;;;;;;14.20;3.90;;;;;;;17.92;100.00;102023.13;5018654;28;20037;-87
2023/10/07 09:54:22;;;;;;;11.33;4.17;;;;;;;17.99;100.00;102010.13;5035146;28;20087;-86
2023/10/07 09:57:19;;;;;;;9.13;3.83;;;;;;;18.08;100.00;101999.63;5019561;28;20033;-87
2023/10/07 10:03:14;;;;;;;12.60;4.22;;;;;;;18.38;100.00;102004.16;5036228;28;20045;-87
2023/10/07 10:05:58;;;;;;;9.02;3.40;;;;;;;18.48;100.00;101996.13;5018250;28;20034;-87
2023/10/07 10:08:55;;;;;;;10.10;3.67;;;;;;;18.66;100.00;102027.31;5034872;28;20508;-87
2023/10/07 10:11:33;;;;;;;9.57;3.67;;;;;;;18.65;97.24;101999.00;5018214;28;20453;-87
2023/10/07 10:16:44;;;;;;;11.80;4.07;;;;;;;18.79;95.13;102006.97;5035537;28;20370;-87
2023/10/07 10:19:37;;;;;;;8.07;3.10;;;;;;;18.82;95.99;102017.47;5034549;28;20045;-87
2023/10/07 10:22:10;;;;;;;9.97;4.17;;;;;;;18.91;93.96;102032.56;5018765;28;20055;-87
2023/10/07 10:24:41;;;;;;;11.50;3.50;;;;;;;19.00;94.17;102025.63;5018013;28;20044;-87
2023/10/07 10:27:11;;;;;;;8.63;3.53;;;;;;;19.16;93.86;102023.97;5017673;28;20038;-86
2023/10/07 10:30:03;;;;;;;8.65;3.70;;;;;;;19.35;93.33;102035.63;5017834;28;20068;-86
2023/10/07 10:32:33;;;;;;;12.88;3.55;;;;;;;19.48;90.44;102031.75;5017978;28;20465;-87
2023/10/07 10:35:01;;;;;;;7.10;3.60;;;;;;;19.48;89.76;102028.19;5018549;28;20497;-87
2023/10/07 10:37:30;;;;;;;10.07;3.88;;;;;;;19.50;88.60;102037.84;5035698;28;20068;-87
2023/10/07 10:39:59;;;;;;;10.60;3.60;;;;;;;19.63;89.83;102033.97;5018436;28;20140;-86
2023/10/07 10:42:31;;;;;;;10.50;4.00;;;;;;;19.69;87.97;102037.66;5017761;28;20052;-87
2023/10/07 10:44:56;;;;;;;9.98;4.05;;;;;;;19.79;86.50;102046.94;5035673;28;20120;-87
2023/10/07 10:47:22;;;;;;;7.77;3.73;;;;;;;19.95;86.18;102039.78;5017264;28;20145;-86
2023/10/07 10:49:57;;;;;;;13.67;3.80;;;;;;;20.12;84.98;102053.56;5017885;28;20048;-87
2023/10/07 10:52:22;;;;;;;10.13;3.35;;;;;;;20.21;83.68;102031.94;5001892;28;20076;-87
2023/10/07 10:54:48;;;;;;;8.65;3.50;;;;;;;20.31;83.02;102020.22;5017271;28;20061;-87
2023/10/07 10:57:19;;;;;;;10.27;3.60;;;;;;;20.51;83.19;102020.53;5002493;28;20048;-87
2023/10/07 10:59:47;;;;;;;10.48;3.65;;;;;;;21.10;80.27;102026.56;5002607;28;20069;-87
2023/10/07 11:02:24;;;;;;;10.90;4.00;;;;;;;22.75;75.58;102017.72;5017141;28;20091;-87
2023/10/07 11:04:54;;;;;;;8.93;3.50;;;;;;;24.16;67.46;102013.88;5016950;28;20128;-87
2023/10/07 11:07:23;;;;;;;9.63;3.63;;;;;;;24.90;63.92;102032.84;5017183;28;20073;-87
2023/10/07 11:09:54;;;;;;;9.60;3.85;;;;;;;25.54;60.92;102017.25;5017284;28;20037;-87
2023/10/07 11:12:22;;;;;;;7.45;3.40;;;;;;;26.67;58.47;102011.78;5034985;28;20037;-87
2023/10/07 11:14:48;;;;;;;9.05;3.75;;;;;;;28.11;54.90;102020.84;5033812;28;20045;-87
2023/10/07 11:17:15;;;;;;;8.27;3.80;;;;;;;28.15;51.90;102010.72;5017013;28;20041;-87
2023/10/07 11:19:51;;;;;;;8.43;4.00;;;;;;;27.70;53.61;102013.97;5032692;28;20089;-87
2023/10/07 11:22:21;;;;;;;8.45;3.83;;;;;;;27.79;52.20;102012.16;5017203;28;20044;-87
2023/10/07 11:24:50;;;;;;;9.27;4.60;;;;;;;27.77;52.44;102000.47;5033277;28;20040;-87
2023/10/07 11:27:23;;;;;;;8.98;4.05;;;;;;;28.43;50.72;102014.38;5034476;28;20041;-88
2023/10/07 11:30:03;;;;;;;10.45;3.97;;;;;;;29.47;49.06;101996.25;5034492;28;20034;-87
2023/10/07 11:32:38;;;;;;;6.82;4.75;;;;;;;29.50;47.14;102002.03;5016321;28;20087;-88
2023/10/07 11:35:15;;;;;;;15.85;4.78;;;;;;;29.35;49.15;101996.81;5033130;28;20044;-87
2023/10/07 11:37:57;;;;;;;11.00;4.43;;;;;;;29.47;47.92;101999.88;5032937;28;20056;-88
2023/10/07 11:40:23;;;;;;;9.65;4.40;;;;;;;29.42;47.08;101993.59;5016788;28;20041;-88
2023/10/07 11:42:52;;;;;;;8.80;4.20;;;;;;;29.51;47.10;101986.94;5016504;28;20041;-88
2023/10/07 11:45:22;;;;;;;11.05;4.60;;;;;;;29.84;45.79;101981.09;5016497;28;20179;-88
2023/10/07 11:47:48;;;;;;;7.32;4.00;;;;;;;29.76;46.09;101987.41;5017207;28;20104;-88
2023/10/07 11:50:18;;;;;;;9.17;4.00;;;;;;;29.99;45.99;101981.84;5000089;28;20045;-88
2023/10/07 11:52:46;;;;;;;7.28;4.15;;;;;;;29.82;44.94;101991.75;5017238;28;20057;-88
2023/10/07 11:55:17;;;;;;;9.95;4.07;;;;;;;30.02;45.05;101986.78;5033706;28;20037;-88
2023/10/07 11:57:42;;;;;;;8.30;4.25;;;;;;;30.71;43.77;102000.25;5001237;28;20073;-88
2023/10/07 12:00:27;;;;;;;10.00;4.10;;;;;;;30.79;42.93;101999.44;5016271;28;20110;-88
2023/10/07 12:02:53;;;;;;;9.98;4.45;;;;;;;31.04;42.33;101980.22;5016665;28;20046;-88
2023/10/07 12:05:18;;;;;;;11.65;4.13;;;;;;;31.12;41.83;101972.97;5016147;28;20044;-88
2023/10/07 12:07:47;;;;;;;8.80;4.10;;;;;;;31.94;40.90;101983.47;5016062;28;20162;-86
2023/10/07 12:10:16;;;;;;;7.57;3.90;;;;;;;34.01;36.48;101974.28;5016631;28;20038;-86
2023/10/07 12:12:45;;;;;;;6.73;4.13;;;;;;;34.16;34.41;101990.47;5033641;28;20037;-86
2023/10/07 12:15:15;;;;;;;11.38;4.90;;;;;;;34.35;35.09;101984.31;5015905;28;20052;-86
2023/10/07 12:17:46;;;;;;;8.70;4.30;;;;;;;35.29;33.63;101985.25;5016862;28;20057;-87
2023/10/07 12:20:15;;;;;;;10.45;4.88;;;;;;;35.75;31.15;101986.91;5015694;28;20054;-86
2023/10/07 12:22:42;;;;;;;11.52;4.10;;;;;;;35.80;31.03;101976.22;5016168;28;20037;-87